Olamon, Maine
Current Conditions -  °F | °C
As of 8:53 AM on Saturday 22 Nov 2014 (Local Time) from KBGR Reporting Station
Overcast Overcast  
Wind Chill: -5°   Ceiling: 9500
Heat Index: -5°   Visibility: 10mi
Dew Point: -11°   Wind: 3mph
Humidity: 63%   Direction: 220°SW
Pressure: 30.25"   Gusts: NA
Location:  45.12°N, 68.6°W
Report Text: KBGR 221353Z 22003KT 10SM OVC095 M05/M11 A3025 RMK AO2 SLP247 T10501111
Loading
Personal Weather Stations






























Interactive Weather Map New forecast layout! Learn more

10-Day Weather Forecast

Advertisements
Track Severe Weather on mobile